Terminal Aerodrome Forecast
Issued by NWS

Home | Current Version | Previous Version | Text Only | Print | Product List | Glossary On
Versions: 1 2 3 4 5 6 7 8 9 10 11
016
FTUS44 KSJT 261125
TAFBBD
TAF
KBBD 261125Z 2612/2712 VRB03KT P6SM SCT015
      TEMPO 2612/2614 BKN015
     FM261600 16007KT P6SM SCT060
     FM270100 VRB03KT P6SM SCT250
      AMD NOT SKED=

USA.gov is the U.S. government's official web portal to all federal, state and local government web resources and services.